createdAt,value
2018-10-18T00:01:38.621Z,10.50
2018-10-18T00:04:07.770Z,7.50
2018-10-18T00:06:36.783Z,14.93
2018-10-18T00:09:08.544Z,14.97
2018-10-18T00:11:37.531Z,12.53
2018-10-18T00:14:06.213Z,13.20
2018-10-18T00:16:35.007Z,15.57
2018-10-18T00:19:03.579Z,15.23
2018-10-18T00:21:32.390Z,15.43
2018-10-18T00:24:01.683Z,11.40
2018-10-18T00:26:31.057Z,9.80
2018-10-18T00:28:59.753Z,15.73
2018-10-18T00:31:28.622Z,8.47
2018-10-18T00:33:57.249Z,11.33
2018-10-18T00:36:26.424Z,15.30
2018-10-18T00:38:54.958Z,16.07
2018-10-18T00:41:23.686Z,15.60
2018-10-18T00:43:52.548Z,15.47
2018-10-18T00:46:21.145Z,15.87
2018-10-18T00:48:50.320Z,13.27
2018-10-18T00:51:18.870Z,13.57
2018-10-18T00:53:47.441Z,15.53
2018-10-18T00:56:16.205Z,11.90
2018-10-18T00:58:44.802Z,13.30
2018-10-18T01:01:14.447Z,11.27
2018-10-18T01:03:43.452Z,10.10
2018-10-18T01:06:12.452Z,12.27
2018-10-18T01:08:40.926Z,15.33
2018-10-18T01:11:09.434Z,15.53
2018-10-18T01:13:38.016Z,13.87
2018-10-18T01:16:06.665Z,11.70
2018-10-18T01:18:35.271Z,10.27
2018-10-18T01:21:04.915Z,12.87
2018-10-18T01:23:33.621Z,16.63
2018-10-18T01:26:02.728Z,13.33
2018-10-18T01:28:31.388Z,16.73
2018-10-18T01:31:00.092Z,16.43
2018-10-18T01:33:28.872Z,16.63
2018-10-18T01:35:57.527Z,14.03
2018-10-18T01:38:26.238Z,12.57
2018-10-18T01:40:55.115Z,16.77
2018-10-18T01:43:23.926Z,13.17
2018-10-18T01:45:52.677Z,8.50
2018-10-18T01:48:21.918Z,8.47
2018-10-18T01:50:50.478Z,14.93
2018-10-18T01:53:19.226Z,16.20
2018-10-18T01:55:47.794Z,13.17
2018-10-18T01:58:16.651Z,15.80
2018-10-18T02:00:46.130Z,12.83
2018-10-18T02:03:15.182Z,14.20
2018-10-18T02:05:43.805Z,16.00
2018-10-18T02:08:12.462Z,12.10
2018-10-18T02:10:41.021Z,15.77
2018-10-18T02:13:09.751Z,16.43
2018-10-18T02:15:38.569Z,14.77
2018-10-18T02:18:07.256Z,15.63
2018-10-18T02:20:35.803Z,14.23
2018-10-18T02:23:04.322Z,12.30
2018-10-18T02:25:33.010Z,11.00
2018-10-18T02:28:02.051Z,13.97
2018-10-18T02:30:30.936Z,10.43
2018-10-18T02:32:59.891Z,8.10
2018-10-18T02:35:35.222Z,11.43
2018-10-18T02:38:04.606Z,15.37
2018-10-18T02:40:33.624Z,12.87
2018-10-18T02:43:02.285Z,16.57
2018-10-18T02:45:31.407Z,11.90
2018-10-18T02:48:00.055Z,10.47
2018-10-18T02:50:28.476Z,15.67
2018-10-18T02:52:57.359Z,13.77
2018-10-18T02:55:25.905Z,10.20
2018-10-18T02:57:54.521Z,15.53
2018-10-18T03:00:23.049Z,12.07
2018-10-18T03:02:52.360Z,14.00
2018-10-18T03:05:21.003Z,16.93
2018-10-18T03:07:49.455Z,17.70
2018-10-18T03:10:18.015Z,17.23
2018-10-18T03:12:46.845Z,16.50
2018-10-18T03:15:15.627Z,15.57
2018-10-18T03:17:44.412Z,11.97
2018-10-18T03:20:13.060Z,15.20
2018-10-18T03:22:41.908Z,18.30
2018-10-18T03:25:10.933Z,18.30
2018-10-18T03:27:40.499Z,18.30
2018-10-18T03:30:09.588Z,19.63
2018-10-18T03:32:37.958Z,16.73
2018-10-18T03:35:07.298Z,19.03
2018-10-18T03:37:36.416Z,12.10
2018-10-18T03:40:04.951Z,9.53
2018-10-18T03:42:33.734Z,8.40
2018-10-18T03:45:02.591Z,10.70
2018-10-18T03:47:31.238Z,10.77
2018-10-18T03:49:59.755Z,8.07
2018-10-18T03:52:29.533Z,15.57
2018-10-18T03:54:58.262Z,14.57
2018-10-18T03:57:26.945Z,15.90
2018-10-18T03:59:55.554Z,17.93
2018-10-18T04:02:24.000Z,16.30
2018-10-18T04:04:52.759Z,14.17
2018-10-18T04:07:21.312Z,15.97
2018-10-18T04:09:50.027Z,16.30
2018-10-18T04:12:18.906Z,20.17
2018-10-18T04:14:48.209Z,19.87
2018-10-18T04:17:17.056Z,20.17
2018-10-18T04:19:46.567Z,20.10
2018-10-18T04:22:15.041Z,18.47
2018-10-18T04:24:43.665Z,19.97
2018-10-18T04:27:12.648Z,19.43
2018-10-18T04:29:41.191Z,16.43
2018-10-18T04:32:09.640Z,17.23
2018-10-18T04:34:38.303Z,17.73
2018-10-18T04:37:07.104Z,20.37
2018-10-18T04:39:35.872Z,19.93
2018-10-18T04:42:04.623Z,20.47
2018-10-18T04:44:33.099Z,19.60
2018-10-18T04:47:02.181Z,16.17
2018-10-18T04:49:30.958Z,18.30
2018-10-18T04:51:59.645Z,18.40
2018-10-18T04:54:28.226Z,19.37
2018-10-18T04:56:56.896Z,20.33
2018-10-18T04:59:25.351Z,19.97
2018-10-18T05:01:53.859Z,19.70
2018-10-18T05:04:22.517Z,19.57
2018-10-18T05:06:51.983Z,19.03
2018-10-18T05:09:20.604Z,19.80
2018-10-18T05:11:49.192Z,18.93
2018-10-18T05:14:17.683Z,19.17
2018-10-18T05:16:46.197Z,20.30
2018-10-18T05:19:14.697Z,17.60
2018-10-18T05:21:43.485Z,11.90
2018-10-18T05:24:12.122Z,9.47
2018-10-18T05:26:41.254Z,8.30
2018-10-18T05:29:09.847Z,17.57
2018-10-18T05:31:38.569Z,15.43
2018-10-18T05:34:07.174Z,16.57
2018-10-18T05:36:35.733Z,15.80
2018-10-18T05:39:07.615Z,16.87
2018-10-18T05:41:36.072Z,18.47
2018-10-18T05:44:05.294Z,12.33
2018-10-18T05:46:33.958Z,13.83
2018-10-18T05:49:02.538Z,9.67
2018-10-18T05:51:31.045Z,9.03
2018-10-18T05:54:00.130Z,10.40
2018-10-18T05:56:28.496Z,18.03
2018-10-18T05:58:56.961Z,17.40
2018-10-18T06:01:26.405Z,17.23
2018-10-18T06:03:55.905Z,18.47
2018-10-18T06:06:24.474Z,16.27
2018-10-18T06:08:53.257Z,17.83
2018-10-18T06:11:29.154Z,18.23
2018-10-18T06:13:57.758Z,19.07
2018-10-18T06:16:38.470Z,19.40
2018-10-18T06:19:07.133Z,13.37
2018-10-18T06:21:35.601Z,20.50
2018-10-18T06:24:04.328Z,17.00
2018-10-18T06:26:32.906Z,12.73
2018-10-18T06:29:01.390Z,13.93
2018-10-18T06:31:29.925Z,19.53
2018-10-18T06:33:58.532Z,11.53
2018-10-18T06:36:27.213Z,11.60
2018-10-18T06:38:55.811Z,11.97
2018-10-18T06:41:24.696Z,15.87
2018-10-18T06:43:53.216Z,17.77
2018-10-18T06:46:21.683Z,18.93
2018-10-18T06:48:51.582Z,22.73
2018-10-18T06:51:20.149Z,22.57
2018-10-18T06:53:48.750Z,17.07
2018-10-18T06:56:17.258Z,20.67
2018-10-18T06:58:45.885Z,22.13
2018-10-18T07:01:14.413Z,20.17
2018-10-18T07:03:43.027Z,22.73
2018-10-18T07:06:11.613Z,21.83
2018-10-18T07:08:40.079Z,23.03
2018-10-18T07:11:08.650Z,23.80
2018-10-18T07:13:37.025Z,21.23
2018-10-18T07:16:05.782Z,24.53
2018-10-18T07:18:34.320Z,22.63
2018-10-18T07:21:02.940Z,22.60
2018-10-18T07:23:31.586Z,23.23
2018-10-18T07:26:00.174Z,22.83
2018-10-18T07:28:28.601Z,23.47
2018-10-18T07:30:58.227Z,23.27
2018-10-18T07:33:26.776Z,23.70
2018-10-18T07:35:55.395Z,23.07
2018-10-18T07:38:24.754Z,25.07
2018-10-18T07:40:53.415Z,23.70
2018-10-18T07:43:22.040Z,23.40
2018-10-18T07:45:50.609Z,23.13
2018-10-18T07:48:19.184Z,22.70
2018-10-18T07:50:47.523Z,24.77
2018-10-18T07:53:16.204Z,20.70
2018-10-18T07:55:44.509Z,22.37
2018-10-18T07:58:12.990Z,20.03
2018-10-18T08:00:41.577Z,24.17
2018-10-18T08:03:10.095Z,20.47
2018-10-18T08:05:38.478Z,14.70
2018-10-18T08:08:06.985Z,21.03
2018-10-18T08:10:35.609Z,21.90
2018-10-18T08:13:04.233Z,21.90
2018-10-18T08:15:32.596Z,16.67
2018-10-18T08:18:02.074Z,17.43
2018-10-18T08:20:30.721Z,14.57
2018-10-18T08:22:59.389Z,20.00
2018-10-18T08:25:27.909Z,14.13
2018-10-18T08:27:56.568Z,17.30
2018-10-18T08:30:25.181Z,25.27
2018-10-18T08:32:53.806Z,19.47
2018-10-18T08:35:22.333Z,18.77
2018-10-18T08:37:50.919Z,16.20
2018-10-18T08:40:19.411Z,19.57
2018-10-18T08:42:48.046Z,16.20
2018-10-18T08:45:16.581Z,20.10
2018-10-18T08:47:45.017Z,21.27
2018-10-18T08:50:13.594Z,20.27
2018-10-18T08:52:42.287Z,19.13
2018-10-18T08:55:13.310Z,24.57
2018-10-18T08:57:42.562Z,18.50
2018-10-18T09:00:11.837Z,24.43
2018-10-18T09:02:41.151Z,19.90
2018-10-18T09:05:10.148Z,20.50
2018-10-18T09:07:39.149Z,19.37
2018-10-18T09:10:08.453Z,27.33
2018-10-18T09:12:37.334Z,21.40
2018-10-18T09:15:07.391Z,25.87
2018-10-18T09:17:36.142Z,25.77
2018-10-18T09:20:05.087Z,26.97
2018-10-18T09:22:33.704Z,28.23
2018-10-18T09:25:02.957Z,23.03
2018-10-18T09:27:31.509Z,17.50
2018-10-18T09:30:00.616Z,28.07
2018-10-18T09:32:29.141Z,20.17
2018-10-18T09:34:57.961Z,26.40
2018-10-18T09:37:26.513Z,27.70
2018-10-18T09:39:55.840Z,25.90
2018-10-18T09:42:24.259Z,26.13
2018-10-18T09:44:53.110Z,28.10
2018-10-18T09:47:22.334Z,21.00
2018-10-18T09:49:51.013Z,22.97
2018-10-18T09:52:19.722Z,24.03
2018-10-18T09:54:48.266Z,28.47
2018-10-18T09:57:16.689Z,23.93
2018-10-18T09:59:46.392Z,25.07
2018-10-18T10:02:20.307Z,22.87
2018-10-18T10:04:48.867Z,26.93
2018-10-18T10:07:17.397Z,25.13
2018-10-18T10:09:45.977Z,27.43
2018-10-18T10:12:14.739Z,23.40
2018-10-18T10:14:43.383Z,24.13
2018-10-18T10:17:11.997Z,24.67
2018-10-18T10:19:40.660Z,27.33
2018-10-18T10:22:09.210Z,25.30
2018-10-18T10:24:37.770Z,19.37
2018-10-18T10:27:06.321Z,26.20
2018-10-18T10:29:34.938Z,22.10
2018-10-18T10:32:03.590Z,27.03
2018-10-18T10:34:32.284Z,23.10
2018-10-18T10:37:01.459Z,27.90
2018-10-18T10:39:30.814Z,24.23
2018-10-18T10:41:59.477Z,27.60
2018-10-18T10:44:28.687Z,29.53
2018-10-18T10:46:57.357Z,25.20
2018-10-18T10:49:25.893Z,25.37
2018-10-18T10:51:54.470Z,25.10
2018-10-18T10:54:23.010Z,28.53
2018-10-18T10:56:51.461Z,26.93
2018-10-18T10:59:20.824Z,16.40
2018-10-18T11:01:49.489Z,19.47
2018-10-18T11:04:18.042Z,27.43
2018-10-18T11:06:46.632Z,29.83
2018-10-18T11:09:15.472Z,21.40
2018-10-18T11:11:43.836Z,25.40
2018-10-18T11:14:12.460Z,28.63
2018-10-18T11:16:41.313Z,27.47
2018-10-18T11:19:09.744Z,23.40
2018-10-18T11:21:38.716Z,26.47
2018-10-18T11:24:07.422Z,26.37
2018-10-18T11:26:35.799Z,26.77
2018-10-18T11:29:04.580Z,24.80
2018-10-18T11:31:33.040Z,25.87
2018-10-18T11:34:01.526Z,21.03
2018-10-18T11:36:30.049Z,18.53
2018-10-18T11:38:58.600Z,23.90
2018-10-18T11:41:27.115Z,20.30
2018-10-18T11:43:55.695Z,23.10
2018-10-18T11:46:24.386Z,24.80
2018-10-18T11:48:53.067Z,24.47
2018-10-18T11:51:21.620Z,23.63
2018-10-18T11:53:50.041Z,13.90
2018-10-18T11:56:18.608Z,19.60
2018-10-18T11:58:46.957Z,21.93
2018-10-18T12:01:15.491Z,22.37
2018-10-18T12:03:43.974Z,23.40
2018-10-18T12:06:12.393Z,23.17
2018-10-18T12:08:40.890Z,22.60
2018-10-18T12:11:09.458Z,23.17
2018-10-18T12:13:37.914Z,18.47
2018-10-18T12:16:06.452Z,22.57
2018-10-18T12:18:34.925Z,22.43
2018-10-18T12:21:03.463Z,23.23
2018-10-18T12:23:32.724Z,22.37
2018-10-18T12:26:01.288Z,22.83
2018-10-18T12:28:29.915Z,20.67
2018-10-18T12:30:58.359Z,19.73
2018-10-18T12:33:27.582Z,21.20
2018-10-18T12:35:56.111Z,20.50
2018-10-18T12:38:24.568Z,20.47
2018-10-18T12:40:53.139Z,20.52
2018-10-18T12:43:21.598Z,20.83
2018-10-18T12:45:50.137Z,19.83
2018-10-18T12:48:18.703Z,19.80
2018-10-18T12:50:47.123Z,16.70
2018-10-18T12:53:15.610Z,22.13
2018-10-18T12:55:44.052Z,20.90
2018-10-18T12:58:12.707Z,20.07
2018-10-18T13:00:41.888Z,21.27
2018-10-18T13:03:10.361Z,18.85
2018-10-18T13:05:39.038Z,21.70
2018-10-18T13:08:08.326Z,19.97
2018-10-18T13:10:36.857Z,20.12
2018-10-18T13:13:05.403Z,15.43
2018-10-18T13:15:34.033Z,21.57
2018-10-18T13:18:02.638Z,21.07
2018-10-18T13:20:31.145Z,18.92
2018-10-18T13:22:59.830Z,16.23
2018-10-18T13:25:28.688Z,21.10
2018-10-18T13:27:57.229Z,23.03
2018-10-18T13:30:25.981Z,19.77
2018-10-18T13:32:54.492Z,16.70
2018-10-18T13:35:23.029Z,20.97
2018-10-18T13:37:51.773Z,18.98
2018-10-18T13:40:20.238Z,21.48
2018-10-18T13:42:48.986Z,20.00
2018-10-18T13:45:17.601Z,19.15
2018-10-18T13:47:46.040Z,20.80
2018-10-18T13:50:14.688Z,20.40
2018-10-18T13:52:43.193Z,19.87
2018-10-18T13:55:11.935Z,18.93
2018-10-18T13:57:40.553Z,20.93
2018-10-18T14:00:20.282Z,20.57
2018-10-18T14:02:49.281Z,21.53
2018-10-18T14:05:19.107Z,20.47
2018-10-18T14:07:47.863Z,17.20
2018-10-18T14:10:16.635Z,18.13
2018-10-18T14:12:45.377Z,16.83
2018-10-18T14:15:13.873Z,18.30
2018-10-18T14:17:42.635Z,18.90
2018-10-18T14:20:11.296Z,18.07
2018-10-18T14:22:40.299Z,15.87
2018-10-18T14:25:09.503Z,18.87
2018-10-18T14:27:38.745Z,17.73
2018-10-18T14:30:08.984Z,17.53
2018-10-18T14:32:37.827Z,18.30
2018-10-18T14:35:07.465Z,18.33
2018-10-18T14:37:36.108Z,17.43
2018-10-18T14:40:05.256Z,16.73
2018-10-18T14:42:34.577Z,12.80
2018-10-18T14:45:03.371Z,15.50
2018-10-18T14:47:32.113Z,16.57
2018-10-18T14:50:00.690Z,15.73
2018-10-18T14:52:29.148Z,16.40
2018-10-18T14:54:57.676Z,16.07
2018-10-18T14:57:26.177Z,11.80
2018-10-18T14:59:54.701Z,13.77
2018-10-18T15:02:23.290Z,15.00
2018-10-18T15:04:51.792Z,14.90
2018-10-18T15:07:20.946Z,13.90
2018-10-18T15:09:49.765Z,13.30
2018-10-18T15:12:19.151Z,14.67
2018-10-18T15:14:47.717Z,13.27
2018-10-18T15:17:16.306Z,14.23
2018-10-18T15:19:44.767Z,16.23
2018-10-18T15:22:13.456Z,14.77
2018-10-18T15:24:42.066Z,14.20
2018-10-18T15:27:10.735Z,15.00
2018-10-18T15:29:39.189Z,14.83
2018-10-18T15:32:08.018Z,12.30
2018-10-18T15:34:36.547Z,14.33
2018-10-18T15:37:06.140Z,16.47
2018-10-18T15:39:34.694Z,14.47
2018-10-18T15:42:03.288Z,14.97
2018-10-18T15:44:31.817Z,15.10
2018-10-18T15:47:00.299Z,14.90
2018-10-18T15:49:28.773Z,14.70
2018-10-18T15:51:57.328Z,14.60
2018-10-18T15:54:25.965Z,14.53
2018-10-18T15:56:54.424Z,14.20
2018-10-18T15:59:23.175Z,13.57
2018-10-18T16:01:52.522Z,12.43
2018-10-18T16:04:21.134Z,13.10
2018-10-18T16:06:49.669Z,12.57
2018-10-18T16:09:18.294Z,12.57
2018-10-18T16:11:46.940Z,12.00
2018-10-18T16:14:15.629Z,12.23
2018-10-18T16:16:44.196Z,12.40
2018-10-18T16:19:12.747Z,12.53
2018-10-18T16:21:41.384Z,12.73
2018-10-18T16:24:10.194Z,12.27
2018-10-18T16:26:38.958Z,13.07
2018-10-18T16:29:08.344Z,13.50
2018-10-18T16:31:37.462Z,12.83
2018-10-18T16:34:06.341Z,12.87
2018-10-18T16:36:34.867Z,14.20
2018-10-18T16:39:03.598Z,13.90
2018-10-18T16:41:32.291Z,13.17
2018-10-18T16:44:00.628Z,14.03
2018-10-18T16:46:29.429Z,14.30
2018-10-18T16:48:57.998Z,13.80
2018-10-18T16:51:26.789Z,14.80
2018-10-18T16:53:55.318Z,13.70
2018-10-18T16:56:23.842Z,13.70
2018-10-18T16:58:52.739Z,14.13
2018-10-18T17:01:21.453Z,13.43
2018-10-18T17:03:49.969Z,14.03
2018-10-18T17:06:18.542Z,13.73
2018-10-18T17:08:47.025Z,14.27
2018-10-18T17:11:15.694Z,13.50
2018-10-18T17:13:44.129Z,12.67
2018-10-18T17:16:12.715Z,13.50
2018-10-18T17:18:41.414Z,13.93
2018-10-18T17:21:10.024Z,14.80
2018-10-18T17:23:38.631Z,14.80
2018-10-18T17:26:07.145Z,14.80
2018-10-18T17:28:35.620Z,15.03
2018-10-18T17:31:04.348Z,13.43
2018-10-18T17:33:32.974Z,15.23
2018-10-18T17:36:01.602Z,16.20
2018-10-18T17:38:30.118Z,17.07
2018-10-18T17:40:58.609Z,14.73
2018-10-18T17:43:27.042Z,15.90
2018-10-18T17:45:55.963Z,16.37
2018-10-18T17:48:24.521Z,16.07
2018-10-18T17:50:53.176Z,15.97
2018-10-18T17:53:22.547Z,16.80
2018-10-18T17:55:52.165Z,14.70
2018-10-18T17:58:20.855Z,16.03
2018-10-18T18:00:49.449Z,17.07
2018-10-18T18:03:18.276Z,16.63
2018-10-18T18:05:46.860Z,15.77
2018-10-18T18:08:16.174Z,17.40
2018-10-18T18:10:44.869Z,18.13
2018-10-18T18:13:13.489Z,16.80
2018-10-18T18:15:42.031Z,13.20
2018-10-18T18:18:10.792Z,13.63
2018-10-18T18:20:39.352Z,16.97
2018-10-18T18:23:07.876Z,16.10
2018-10-18T18:25:36.328Z,14.00
2018-10-18T18:28:04.964Z,13.53
2018-10-18T18:30:33.560Z,18.40
2018-10-18T18:33:02.376Z,18.40
2018-10-18T18:35:30.881Z,13.00
2018-10-18T18:37:59.531Z,17.40
2018-10-18T18:40:28.033Z,14.50
2018-10-18T18:42:56.671Z,10.43
2018-10-18T18:45:29.612Z,11.00
2018-10-18T18:47:58.121Z,9.90
2018-10-18T18:50:33.279Z,13.37
2018-10-18T18:53:01.997Z,9.40
2018-10-18T18:55:30.509Z,16.20
2018-10-18T18:57:59.320Z,16.13
2018-10-18T19:00:27.902Z,10.57
2018-10-18T19:02:56.482Z,13.07
2018-10-18T19:05:25.352Z,20.47
2018-10-18T19:07:53.774Z,9.93
2018-10-18T19:10:22.448Z,16.60
2018-10-18T19:12:51.024Z,16.13
2018-10-18T19:15:19.614Z,20.50
2018-10-18T19:17:48.253Z,15.70
2018-10-18T19:20:17.146Z,15.63
2018-10-18T19:22:46.071Z,11.70
2018-10-18T19:25:15.513Z,14.13
2018-10-18T19:27:44.118Z,10.40
2018-10-18T19:30:13.361Z,16.87
2018-10-18T19:32:41.906Z,10.27
2018-10-18T19:35:10.624Z,12.03
2018-10-18T19:37:39.198Z,15.20
2018-10-18T19:40:08.608Z,12.53
2018-10-18T19:42:37.264Z,12.87
2018-10-18T19:45:07.196Z,16.87
2018-10-18T19:47:35.843Z,13.77
2018-10-18T19:50:04.488Z,20.30
2018-10-18T19:52:33.284Z,11.10
2018-10-18T19:55:01.846Z,21.47
2018-10-18T19:57:30.399Z,15.70
2018-10-18T19:59:59.061Z,17.07
2018-10-18T20:02:27.680Z,14.80
2018-10-18T20:04:56.202Z,11.93
2018-10-18T20:07:24.668Z,20.83
2018-10-18T20:09:53.364Z,15.03
2018-10-18T20:12:21.913Z,13.23
2018-10-18T20:14:50.352Z,19.60
2018-10-18T20:17:18.992Z,21.13
2018-10-18T20:19:47.870Z,12.70
2018-10-18T20:22:16.460Z,20.50
2018-10-18T20:24:45.338Z,22.43
2018-10-18T20:27:14.078Z,13.90
2018-10-18T20:29:42.801Z,12.77
2018-10-18T20:32:12.111Z,12.97
2018-10-18T20:34:41.006Z,11.87
2018-10-18T20:37:09.678Z,18.87
2018-10-18T20:39:38.353Z,14.07
2018-10-18T20:42:07.758Z,15.17
2018-10-18T20:44:36.941Z,18.70
2018-10-18T20:47:05.777Z,24.67
2018-10-18T20:49:34.606Z,15.60
2018-10-18T20:52:03.397Z,21.80
2018-10-18T20:54:32.705Z,11.33
2018-10-18T20:57:01.248Z,9.50
2018-10-18T20:59:29.777Z,19.43
2018-10-18T21:01:58.400Z,21.53
2018-10-18T21:04:26.877Z,15.33
2018-10-18T21:06:55.997Z,20.90
2018-10-18T21:09:24.422Z,23.33
2018-10-18T21:11:52.855Z,27.40
2018-10-18T21:14:21.281Z,26.03
2018-10-18T21:16:49.787Z,13.97
2018-10-18T21:19:18.271Z,16.17
2018-10-18T21:21:46.879Z,26.60
2018-10-18T21:24:15.296Z,17.63
2018-10-18T21:26:43.757Z,26.23
2018-10-18T21:29:12.276Z,14.50
2018-10-18T21:31:40.657Z,26.97
2018-10-18T21:34:09.232Z,13.87
2018-10-18T21:36:37.697Z,27.10
2018-10-18T21:39:06.991Z,30.50
2018-10-18T21:41:35.560Z,30.00
2018-10-18T21:44:04.101Z,19.73
2018-10-18T21:46:32.547Z,30.30
2018-10-18T21:49:01.750Z,14.73
2018-10-18T21:51:30.092Z,28.97
2018-10-18T21:53:58.517Z,21.80
2018-10-18T21:56:26.929Z,23.90
2018-10-18T21:58:55.429Z,19.87
2018-10-18T22:01:23.957Z,15.63
2018-10-18T22:03:52.436Z,16.27
2018-10-18T22:06:20.927Z,30.40
2018-10-18T22:08:49.549Z,29.37
2018-10-18T22:11:18.717Z,28.73
2018-10-18T22:13:47.173Z,27.67
2018-10-18T22:16:15.620Z,21.07
2018-10-18T22:18:44.760Z,30.83
2018-10-18T22:21:13.234Z,28.93
2018-10-18T22:23:41.628Z,28.90
2018-10-18T22:26:10.562Z,23.53
2018-10-18T22:28:39.121Z,22.50
2018-10-18T22:31:07.710Z,22.83
2018-10-18T22:33:36.149Z,22.23
2018-10-18T22:36:04.890Z,31.30
2018-10-18T22:38:33.333Z,30.93
2018-10-18T22:41:01.798Z,22.17
2018-10-18T22:43:30.247Z,31.47
2018-10-18T22:46:00.143Z,25.93
2018-10-18T22:48:29.584Z,31.80
2018-10-18T22:50:58.362Z,21.27
2018-10-18T22:53:26.954Z,21.20
2018-10-18T22:55:55.426Z,27.43
2018-10-18T22:58:23.828Z,29.33
2018-10-18T23:00:52.475Z,17.80
2018-10-18T23:03:21.801Z,12.90
2018-10-18T23:05:50.338Z,21.90
2018-10-18T23:08:18.801Z,31.27
2018-10-18T23:10:47.291Z,27.63
2018-10-18T23:13:15.792Z,24.13
2018-10-18T23:15:44.194Z,28.67
2018-10-18T23:18:12.624Z,22.53
2018-10-18T23:20:41.403Z,28.90
2018-10-18T23:23:10.452Z,28.50
2018-10-18T23:25:39.046Z,30.80
2018-10-18T23:28:08.221Z,28.77
2018-10-18T23:30:36.700Z,28.93
2018-10-18T23:33:05.201Z,15.47
2018-10-18T23:35:33.565Z,17.10
2018-10-18T23:38:02.017Z,15.63
2018-10-18T23:40:30.467Z,22.20
2018-10-18T23:42:58.932Z,17.13
2018-10-18T23:45:27.359Z,27.83
2018-10-18T23:47:55.794Z,23.00
2018-10-18T23:50:24.272Z,21.00
2018-10-18T23:52:52.791Z,23.07
2018-10-18T23:55:21.224Z,20.03
2018-10-18T23:57:49.769Z,29.50
